sensor_id;sensor_type;location;lat;lon;timestamp;pressure;altitude;pressure_sealevel;temperature;humidity
33953;BME280;20231;42.710;23.280;2023-03-21T00:01:23;94785.16;;;14.57;46.09
33953;BME280;20231;42.710;23.280;2023-03-21T00:03:48;94778.84;;;14.44;46.31
33953;BME280;20231;42.710;23.280;2023-03-21T00:06:15;94760.44;;;14.48;46.16
33953;BME280;20231;42.710;23.280;2023-03-21T00:08:41;94816.47;;;14.77;46.09
33953;BME280;20231;42.710;23.280;2023-03-21T00:11:08;94811.91;;;14.69;46.09
33953;BME280;20231;42.710;23.280;2023-03-21T00:13:35;94810.66;;;14.66;45.83
33953;BME280;20231;42.710;23.280;2023-03-21T00:16:07;94807.00;;;14.54;46.27
33953;BME280;20231;42.710;23.280;2023-03-21T00:18:34;94807.38;;;14.69;45.92
33953;BME280;20231;42.710;23.280;2023-03-21T00:21:06;94803.56;;;14.53;46.24
33953;BME280;20231;42.710;23.280;2023-03-21T00:23:33;94795.91;;;14.22;46.73
33953;BME280;20231;42.710;23.280;2023-03-21T00:25:59;94800.84;;;14.45;46.31
33953;BME280;20231;42.710;23.280;2023-03-21T00:28:25;94792.78;;;14.50;46.24
33953;BME280;20231;42.710;23.280;2023-03-21T00:30:56;94803.78;;;14.65;46.22
33953;BME280;20231;42.710;23.280;2023-03-21T00:33:22;94801.91;;;14.66;46.13
33953;BME280;20231;42.710;23.280;2023-03-21T00:35:49;94800.03;;;14.66;46.30
33953;BME280;20231;42.710;23.280;2023-03-21T00:38:16;94799.88;;;14.63;46.47
33953;BME280;20231;42.710;23.280;2023-03-21T00:40:42;94794.94;;;14.48;46.74
33953;BME280;20231;42.710;23.280;2023-03-21T00:43:08;94798.06;;;14.41;46.83
33953;BME280;20231;42.710;23.280;2023-03-21T00:45:33;94805.59;;;14.56;46.57
33953;BME280;20231;42.710;23.280;2023-03-21T00:47:58;94802.06;;;14.69;46.34
33953;BME280;20231;42.710;23.280;2023-03-21T00:50:24;94793.88;;;14.49;46.29
33953;BME280;20231;42.710;23.280;2023-03-21T00:52:49;94776.53;;;14.21;47.01
33953;BME280;20231;42.710;23.280;2023-03-21T00:55:17;94794.50;;;14.54;46.21
33953;BME280;20231;42.710;23.280;2023-03-21T00:57:43;94785.81;;;14.32;46.71
33953;BME280;20231;42.710;23.280;2023-03-21T01:00:12;94803.09;;;14.51;46.65
33953;BME280;20231;42.710;23.280;2023-03-21T01:02:39;94791.63;;;14.42;46.76
33953;BME280;20231;42.710;23.280;2023-03-21T01:05:20;94782.78;;;14.55;46.57
33953;BME280;20231;42.710;23.280;2023-03-21T01:08:05;94770.41;;;14.42;46.79
33953;BME280;20231;42.710;23.280;2023-03-21T01:10:32;94772.09;;;14.38;46.83
33953;BME280;20231;42.710;23.280;2023-03-21T01:12:57;94762.69;;;14.24;47.18
33953;BME280;20231;42.710;23.280;2023-03-21T01:15:22;94781.47;;;14.36;47.04
33953;BME280;20231;42.710;23.280;2023-03-21T01:17:48;94778.34;;;14.42;46.53
33953;BME280;20231;42.710;23.280;2023-03-21T01:20:13;94773.50;;;14.36;46.48
33953;BME280;20231;42.710;23.280;2023-03-21T01:22:39;94777.63;;;14.20;46.54
33953;BME280;20231;42.710;23.280;2023-03-21T01:25:05;94785.16;;;14.27;46.53
33953;BME280;20231;42.710;23.280;2023-03-21T01:27:30;94770.84;;;14.36;46.23
33953;BME280;20231;42.710;23.280;2023-03-21T01:29:55;94780.25;;;14.42;46.27
33953;BME280;20231;42.710;23.280;2023-03-21T01:32:21;94779.84;;;14.27;46.40
33953;BME280;20231;42.710;23.280;2023-03-21T01:34:46;94793.66;;;14.37;46.39
33953;BME280;20231;42.710;23.280;2023-03-21T01:37:12;94770.59;;;14.16;46.55
33953;BME280;20231;42.710;23.280;2023-03-21T01:39:38;94780.00;;;14.22;46.57
33953;BME280;20231;42.710;23.280;2023-03-21T01:42:04;94765.75;;;14.18;46.48
33953;BME280;20231;42.710;23.280;2023-03-21T01:44:29;94741.22;;;14.12;46.48
33953;BME280;20231;42.710;23.280;2023-03-21T01:46:55;94751.19;;;14.37;46.02
33953;BME280;20231;42.710;23.280;2023-03-21T01:49:24;94777.97;;;14.57;45.87
33953;BME280;20231;42.710;23.280;2023-03-21T01:52:00;94779.53;;;14.58;45.89
33953;BME280;20231;42.710;23.280;2023-03-21T01:54:30;94777.97;;;14.57;45.79
33953;BME280;20231;42.710;23.280;2023-03-21T01:57:00;94733.72;;;14.14;46.14
33953;BME280;20231;42.710;23.280;2023-03-21T01:59:44;94781.72;;;14.56;45.77
33953;BME280;20231;42.710;23.280;2023-03-21T02:02:40;94774.47;;;14.48;46.03
33953;BME280;20231;42.710;23.280;2023-03-21T02:05:35;94759.03;;;14.50;45.94
33953;BME280;20231;42.710;23.280;2023-03-21T02:08:03;94765.44;;;14.49;45.86
33953;BME280;20231;42.710;23.280;2023-03-21T02:10:31;94763.19;;;14.34;46.28
33953;BME280;20231;42.710;23.280;2023-03-21T02:12:59;94758.13;;;14.25;46.41
33953;BME280;20231;42.710;23.280;2023-03-21T02:15:34;94759.34;;;14.19;46.67
33953;BME280;20231;42.710;23.280;2023-03-21T02:18:25;94762.66;;;14.02;47.27
33953;BME280;20231;42.710;23.280;2023-03-21T02:21:00;94758.59;;;14.18;47.03
33953;BME280;20231;42.710;23.280;2023-03-21T02:23:53;94762.25;;;14.09;47.53
33953;BME280;20231;42.710;23.280;2023-03-21T02:29:29;94760.94;;;13.98;47.50
33953;BME280;20231;42.710;23.280;2023-03-21T02:37:33;94763.97;;;13.83;48.15
33953;BME280;20231;42.710;23.280;2023-03-21T02:40:21;94765.09;;;13.90;47.90
33953;BME280;20231;42.710;23.280;2023-03-21T02:47:54;94742.03;;;13.47;48.74
33953;BME280;20231;42.710;23.280;2023-03-21T02:50:30;94760.03;;;13.80;48.07
33953;BME280;20231;42.710;23.280;2023-03-21T02:52:59;94736.84;;;13.86;47.43
33953;BME280;20231;42.710;23.280;2023-03-21T02:55:29;94754.44;;;13.60;48.35
33953;BME280;20231;42.710;23.280;2023-03-21T02:57:56;94764.13;;;13.86;47.79
33953;BME280;20231;42.710;23.280;2023-03-21T03:00:26;94763.16;;;13.60;48.33
33953;BME280;20231;42.710;23.280;2023-03-21T03:02:52;94746.66;;;13.42;48.72
33953;BME280;20231;42.710;23.280;2023-03-21T03:05:25;94755.03;;;13.35;48.87
33953;BME280;20231;42.710;23.280;2023-03-21T03:10:41;94756.06;;;13.48;48.49
33953;BME280;20231;42.710;23.280;2023-03-21T03:18:27;94748.19;;;13.78;47.44
33953;BME280;20231;42.710;23.280;2023-03-21T03:20:59;94761.06;;;13.71;47.84
33953;BME280;20231;42.710;23.280;2023-03-21T03:23:43;94767.44;;;13.70;47.71
33953;BME280;20231;42.710;23.280;2023-03-21T03:28:55;94772.38;;;13.41;48.40
33953;BME280;20231;42.710;23.280;2023-03-21T03:31:29;94761.53;;;13.16;48.93
33953;BME280;20231;42.710;23.280;2023-03-21T03:34:01;94748.53;;;13.06;49.10
33953;BME280;20231;42.710;23.280;2023-03-21T03:36:30;94758.56;;;13.31;48.55
33953;BME280;20231;42.710;23.280;2023-03-21T03:39:02;94761.81;;;12.92;49.86
33953;BME280;20231;42.710;23.280;2023-03-21T03:41:29;94763.53;;;12.83;50.20
33953;BME280;20231;42.710;23.280;2023-03-21T03:43:58;94767.69;;;12.89;50.11
33953;BME280;20231;42.710;23.280;2023-03-21T03:46:35;94764.72;;;12.91;49.92
33953;BME280;20231;42.710;23.280;2023-03-21T03:49:08;94749.03;;;12.94;49.83
33953;BME280;20231;42.710;23.280;2023-03-21T03:51:51;94751.50;;;13.04;49.30
33953;BME280;20231;42.710;23.280;2023-03-21T03:54:22;94758.31;;;13.19;48.94
33953;BME280;20231;42.710;23.280;2023-03-21T03:56:49;94763.06;;;13.30;48.38
33953;BME280;20231;42.710;23.280;2023-03-21T03:59:16;94742.84;;;13.34;48.00
33953;BME280;20231;42.710;23.280;2023-03-21T04:01:49;94758.63;;;13.39;48.01
33953;BME280;20231;42.710;23.280;2023-03-21T04:04:15;94744.31;;;13.40;47.67
33953;BME280;20231;42.710;23.280;2023-03-21T04:06:45;94755.41;;;13.42;47.79
33953;BME280;20231;42.710;23.280;2023-03-21T04:09:15;94750.94;;;13.29;48.02
33953;BME280;20231;42.710;23.280;2023-03-21T04:11:41;94764.63;;;13.45;47.93
33953;BME280;20231;42.710;23.280;2023-03-21T04:14:06;94761.53;;;13.16;48.46
33953;BME280;20231;42.710;23.280;2023-03-21T04:16:32;94745.75;;;13.46;47.74
33953;BME280;20231;42.710;23.280;2023-03-21T04:18:57;94732.41;;;13.16;48.13
33953;BME280;20231;42.710;23.280;2023-03-21T04:21:22;94742.59;;;13.22;48.28
33953;BME280;20231;42.710;23.280;2023-03-21T04:23:48;94739.50;;;13.07;48.64
33953;BME280;20231;42.710;23.280;2023-03-21T04:26:13;94707.53;;;13.03;48.25
33953;BME280;20231;42.710;23.280;2023-03-21T04:28:39;94716.44;;;13.07;48.34
33953;BME280;20231;42.710;23.280;2023-03-21T04:31:06;94730.25;;;13.18;48.55
33953;BME280;20231;42.710;23.280;2023-03-21T04:33:33;94703.91;;;12.99;48.66
33953;BME280;20231;42.710;23.280;2023-03-21T04:36:05;94709.00;;;12.96;49.21
33953;BME280;20231;42.710;23.280;2023-03-21T04:38:37;94698.78;;;12.68;49.74
33953;BME280;20231;42.710;23.280;2023-03-21T04:41:05;94721.75;;;12.80;50.02
33953;BME280;20231;42.710;23.280;2023-03-21T04:43:30;94751.22;;;12.92;50.28
33953;BME280;20231;42.710;23.280;2023-03-21T04:45:56;94751.38;;;12.82;50.54
33953;BME280;20231;42.710;23.280;2023-03-21T04:48:21;94751.91;;;12.71;50.90
33953;BME280;20231;42.710;23.280;2023-03-21T04:50:50;94741.28;;;12.84;50.31
33953;BME280;20231;42.710;23.280;2023-03-21T04:53:20;94757.41;;;12.88;50.42
33953;BME280;20231;42.710;23.280;2023-03-21T04:55:55;94768.84;;;12.70;50.47
33953;BME280;20231;42.710;23.280;2023-03-21T04:58:28;94748.16;;;12.99;49.05
33953;BME280;20231;42.710;23.280;2023-03-21T05:00:55;94746.38;;;12.94;48.99
33953;BME280;20231;42.710;23.280;2023-03-21T05:03:21;94759.31;;;12.96;48.96
33953;BME280;20231;42.710;23.280;2023-03-21T05:05:48;94756.28;;;13.02;48.58
33953;BME280;20231;42.710;23.280;2023-03-21T05:08:13;94762.56;;;12.66;49.64
33953;BME280;20231;42.710;23.280;2023-03-21T05:10:39;94758.88;;;12.54;49.98
33953;BME280;20231;42.710;23.280;2023-03-21T05:13:05;94769.03;;;12.60;49.97
33953;BME280;20231;42.710;23.280;2023-03-21T05:15:30;94749.53;;;12.70;49.66
33953;BME280;20231;42.710;23.280;2023-03-21T05:17:56;94756.19;;;12.80;49.40
33953;BME280;20231;42.710;23.280;2023-03-21T05:20:25;94752.94;;;12.83;49.54
33953;BME280;20231;42.710;23.280;2023-03-21T05:22:51;94751.50;;;12.78;49.86
33953;BME280;20231;42.710;23.280;2023-03-21T05:25:17;94758.84;;;12.67;50.44
33953;BME280;20231;42.710;23.280;2023-03-21T05:27:45;94769.44;;;12.94;50.23
33953;BME280;20231;42.710;23.280;2023-03-21T05:30:18;94768.66;;;12.93;50.20
33953;BME280;20231;42.710;23.280;2023-03-21T05:32:45;94753.94;;;12.74;50.75
33953;BME280;20231;42.710;23.280;2023-03-21T05:35:14;94769.81;;;12.74;50.78
33953;BME280;20231;42.710;23.280;2023-03-21T05:37:40;94717.09;;;12.51;50.93
33953;BME280;20231;42.710;23.280;2023-03-21T05:40:20;94742.78;;;12.64;50.90
33953;BME280;20231;42.710;23.280;2023-03-21T05:42:46;94774.06;;;12.88;50.78
33953;BME280;20231;42.710;23.280;2023-03-21T05:45:12;94767.09;;;12.92;50.84
33953;BME280;20231;42.710;23.280;2023-03-21T05:47:39;94764.16;;;12.94;50.85
33953;BME280;20231;42.710;23.280;2023-03-21T05:50:05;94771.41;;;12.88;51.35
33953;BME280;20231;42.710;23.280;2023-03-21T05:52:33;94769.44;;;12.94;51.32
33953;BME280;20231;42.710;23.280;2023-03-21T05:54:59;94755.53;;;13.02;51.05
33953;BME280;20231;42.710;23.280;2023-03-21T05:57:24;94737.06;;;12.97;51.01
33953;BME280;20231;42.710;23.280;2023-03-21T05:59:52;94746.78;;;13.01;50.88
33953;BME280;20231;42.710;23.280;2023-03-21T06:02:17;94743.69;;;13.21;50.38
33953;BME280;20231;42.710;23.280;2023-03-21T06:04:42;94737.88;;;13.33;50.34
33953;BME280;20231;42.710;23.280;2023-03-21T06:07:08;94742.09;;;13.55;49.88
33953;BME280;20231;42.710;23.280;2023-03-21T06:09:33;94754.81;;;13.67;49.42
33953;BME280;20231;42.710;23.280;2023-03-21T06:11:59;94742.97;;;13.51;49.67
33953;BME280;20231;42.710;23.280;2023-03-21T06:14:24;94745.94;;;13.50;49.55
33953;BME280;20231;42.710;23.280;2023-03-21T06:16:50;94744.94;;;13.59;49.58
33953;BME280;20231;42.710;23.280;2023-03-21T06:19:18;94738.41;;;13.65;49.31
33953;BME280;20231;42.710;23.280;2023-03-21T06:21:43;94749.50;;;13.89;48.82
33953;BME280;20231;42.710;23.280;2023-03-21T06:24:09;94732.44;;;13.81;48.77
33953;BME280;20231;42.710;23.280;2023-03-21T06:26:34;94735.78;;;13.95;48.92
33953;BME280;20231;42.710;23.280;2023-03-21T06:29:00;94735.06;;;14.03;48.22
33953;BME280;20231;42.710;23.280;2023-03-21T06:31:26;94726.69;;;13.88;48.83
33953;BME280;20231;42.710;23.280;2023-03-21T06:33:51;94746.88;;;13.97;49.23
33953;BME280;20231;42.710;23.280;2023-03-21T06:36:18;94741.44;;;14.02;48.87
33953;BME280;20231;42.710;23.280;2023-03-21T06:38:43;94728.00;;;13.99;48.64
33953;BME280;20231;42.710;23.280;2023-03-21T06:41:09;94746.09;;;14.19;53.08
33953;BME280;20231;42.710;23.280;2023-03-21T06:43:35;94750.75;;;14.13;49.24
33953;BME280;20231;42.710;23.280;2023-03-21T06:46:01;94746.16;;;14.05;49.37
33953;BME280;20231;42.710;23.280;2023-03-21T06:48:27;94754.22;;;14.22;49.20
33953;BME280;20231;42.710;23.280;2023-03-21T06:50:54;94754.41;;;14.26;49.28
33953;BME280;20231;42.710;23.280;2023-03-21T06:53:22;94757.72;;;14.31;49.21
33953;BME280;20231;42.710;23.280;2023-03-21T06:55:55;94753.97;;;14.32;49.17
33953;BME280;20231;42.710;23.280;2023-03-21T06:58:21;94746.09;;;14.19;48.50
33953;BME280;20231;42.710;23.280;2023-03-21T07:00:47;94757.38;;;14.24;48.15
33953;BME280;20231;42.710;23.280;2023-03-21T07:03:14;94761.59;;;14.25;48.09
33953;BME280;20231;42.710;23.280;2023-03-21T07:05:40;94761.28;;;14.27;47.94
33953;BME280;20231;42.710;23.280;2023-03-21T07:08:07;94759.28;;;14.32;48.04
33953;BME280;20231;42.710;23.280;2023-03-21T07:10:39;94757.25;;;14.37;48.00
33953;BME280;20231;42.710;23.280;2023-03-21T07:13:05;94753.34;;;14.35;48.08
33953;BME280;20231;42.710;23.280;2023-03-21T07:15:31;94756.63;;;14.32;48.23
33953;BME280;20231;42.710;23.280;2023-03-21T07:17:57;94773.72;;;14.48;47.88
33953;BME280;20231;42.710;23.280;2023-03-21T07:20:22;94767.16;;;14.45;48.07
33953;BME280;20231;42.710;23.280;2023-03-21T07:22:48;94744.47;;;14.39;47.81
33953;BME280;20231;42.710;23.280;2023-03-21T07:25:13;94767.28;;;14.40;48.24
33953;BME280;20231;42.710;23.280;2023-03-21T07:27:41;94746.50;;;14.42;48.06
33953;BME280;20231;42.710;23.280;2023-03-21T07:30:07;94764.69;;;14.57;48.26
33953;BME280;20231;42.710;23.280;2023-03-21T07:32:34;94753.91;;;14.54;48.14
33953;BME280;20231;42.710;23.280;2023-03-21T07:35:00;94759.88;;;14.59;48.29
33953;BME280;20231;42.710;23.280;2023-03-21T07:37:26;94759.91;;;14.68;47.93
33953;BME280;20231;42.710;23.280;2023-03-21T07:39:51;94751.28;;;14.62;47.73
33953;BME280;20231;42.710;23.280;2023-03-21T07:42:17;94758.66;;;14.74;47.42
33953;BME280;20231;42.710;23.280;2023-03-21T07:44:43;94769.63;;;14.81;47.40
33953;BME280;20231;42.710;23.280;2023-03-21T07:47:08;94765.25;;;14.85;46.80
33953;BME280;20231;42.710;23.280;2023-03-21T07:49:34;94774.81;;;14.94;46.77
33953;BME280;20231;42.710;23.280;2023-03-21T07:52:00;94775.13;;;14.93;46.56
33953;BME280;20231;42.710;23.280;2023-03-21T07:54:29;94767.13;;;14.84;46.78
33953;BME280;20231;42.710;23.280;2023-03-21T07:56:55;94733.47;;;14.63;46.88
33953;BME280;20231;42.710;23.280;2023-03-21T07:59:21;94766.09;;;15.02;46.39
33953;BME280;20231;42.710;23.280;2023-03-21T08:01:52;94768.09;;;15.05;45.80
33953;BME280;20231;42.710;23.280;2023-03-21T08:04:18;94750.25;;;14.89;45.97
33953;BME280;20231;42.710;23.280;2023-03-21T08:06:43;94770.00;;;15.04;45.83
33953;BME280;20231;42.710;23.280;2023-03-21T08:09:09;94768.91;;;15.05;46.31
33953;BME280;20231;42.710;23.280;2023-03-21T08:12:00;94768.91;;;15.14;51.44
33953;BME280;20231;42.710;23.280;2023-03-21T08:14:55;94761.47;;;15.24;46.00
33953;BME280;20231;42.710;23.280;2023-03-21T08:17:20;94762.03;;;15.13;45.47
33953;BME280;20231;42.710;23.280;2023-03-21T08:19:47;94745.13;;;15.00;45.91
33953;BME280;20231;42.710;23.280;2023-03-21T08:22:13;94748.25;;;15.11;45.63
33953;BME280;20231;42.710;23.280;2023-03-21T08:24:38;94761.56;;;15.19;45.55
33953;BME280;20231;42.710;23.280;2023-03-21T08:27:04;94761.47;;;15.24;45.63
33953;BME280;20231;42.710;23.280;2023-03-21T08:29:35;94742.94;;;15.11;45.45
33953;BME280;20231;42.710;23.280;2023-03-21T08:32:22;94741.84;;;15.03;45.96
33953;BME280;20231;42.710;23.280;2023-03-21T08:35:00;94743.91;;;15.06;46.09
33953;BME280;20231;42.710;23.280;2023-03-21T08:37:27;94741.09;;;15.03;45.56
33953;BME280;20231;42.710;23.280;2023-03-21T08:39:52;94738.72;;;15.10;45.71
33953;BME280;20231;42.710;23.280;2023-03-21T08:42:18;94748.59;;;15.18;45.88
33953;BME280;20231;42.710;23.280;2023-03-21T08:44:45;94748.59;;;15.18;45.78
33953;BME280;20231;42.710;23.280;2023-03-21T08:47:10;94750.63;;;15.12;45.41
33953;BME280;20231;42.710;23.280;2023-03-21T08:49:35;94733.56;;;15.13;45.36
33953;BME280;20231;42.710;23.280;2023-03-21T08:52:01;94751.28;;;15.26;45.29
33953;BME280;20231;42.710;23.280;2023-03-21T08:54:27;94735.94;;;15.15;47.04
33953;BME280;20231;42.710;23.280;2023-03-21T08:56:52;94719.97;;;15.06;45.34
33953;BME280;20231;42.710;23.280;2023-03-21T08:59:19;94748.94;;;15.25;45.72
33953;BME280;20231;42.710;23.280;2023-03-21T09:01:45;94749.44;;;15.27;45.64
33953;BME280;20231;42.710;23.280;2023-03-21T09:04:11;94749.25;;;15.32;45.58
33953;BME280;20231;42.710;23.280;2023-03-21T09:06:37;94729.06;;;15.14;45.85
33953;BME280;20231;42.710;23.280;2023-03-21T09:09:05;94736.75;;;15.24;45.85
33953;BME280;20231;42.710;23.280;2023-03-21T09:11:33;94742.06;;;15.24;45.35
33953;BME280;20231;42.710;23.280;2023-03-21T09:13:59;94721.13;;;15.22;45.73
33953;BME280;20231;42.710;23.280;2023-03-21T09:16:26;94736.13;;;15.35;45.79
33953;BME280;20231;42.710;23.280;2023-03-21T09:18:51;94727.22;;;15.40;45.70
33953;BME280;20231;42.710;23.280;2023-03-21T09:21:22;94704.06;;;15.23;45.50
33953;BME280;20231;42.710;23.280;2023-03-21T09:23:49;94714.22;;;15.38;45.59
33953;BME280;20231;42.710;23.280;2023-03-21T09:26:17;94691.56;;;15.24;45.87
33953;BME280;20231;42.710;23.280;2023-03-21T09:28:43;94660.88;;;15.18;45.91
33953;BME280;20231;42.710;23.280;2023-03-21T09:31:10;94694.38;;;15.36;45.80
33953;BME280;20231;42.710;23.280;2023-03-21T09:33:49;94706.28;;;15.47;46.09
33953;BME280;20231;42.710;23.280;2023-03-21T09:36:15;94692.19;;;15.46;45.90
33953;BME280;20231;42.710;23.280;2023-03-21T09:38:44;94698.41;;;15.50;45.98
33953;BME280;20231;42.710;23.280;2023-03-21T09:41:22;94710.63;;;15.68;44.99
33953;BME280;20231;42.710;23.280;2023-03-21T09:49:40;94657.41;;;15.60;45.26
33953;BME280;20231;42.710;23.280;2023-03-21T09:52:18;94667.28;;;15.68;45.46
33953;BME280;20231;42.710;23.280;2023-03-21T09:54:51;94677.91;;;15.68;45.83
33953;BME280;20231;42.710;23.280;2023-03-21T09:57:37;94702.75;;;15.88;45.49
33953;BME280;20231;42.710;23.280;2023-03-21T10:00:15;94696.34;;;15.89;44.83
33953;BME280;20231;42.710;23.280;2023-03-21T10:02:56;94683.97;;;15.93;44.62
33953;BME280;20231;42.710;23.280;2023-03-21T10:05:34;94679.41;;;15.94;45.06
33953;BME280;20231;42.710;23.280;2023-03-21T10:08:32;94678.13;;;16.00;45.14
33953;BME280;20231;42.710;23.280;2023-03-21T10:11:25;94668.91;;;16.06;45.36
33953;BME280;20231;42.710;23.280;2023-03-21T10:17:47;94675.56;;;16.29;44.66
33953;BME280;20231;42.710;23.280;2023-03-21T10:20:28;94672.09;;;16.37;44.42
33953;BME280;20231;42.710;23.280;2023-03-21T10:23:15;94653.72;;;16.43;45.25
33953;BME280;20231;42.710;23.280;2023-03-21T10:25:46;94647.16;;;16.41;44.82
33953;BME280;20231;42.710;23.280;2023-03-21T10:28:23;94650.84;;;16.57;44.38
33953;BME280;20231;42.710;23.280;2023-03-21T10:30:56;94660.16;;;16.71;43.95
33953;BME280;20231;42.710;23.280;2023-03-21T10:37:09;94617.38;;;16.68;42.74
33953;BME280;20231;42.710;23.280;2023-03-21T10:40:04;94657.91;;;17.02;42.19
33953;BME280;20231;42.710;23.280;2023-03-21T10:42:37;94658.09;;;17.17;42.52
33953;BME280;20231;42.710;23.280;2023-03-21T10:45:21;94666.75;;;17.14;42.78
33953;BME280;20231;42.710;23.280;2023-03-21T10:47:57;94660.78;;;17.17;41.55
33953;BME280;20231;42.710;23.280;2023-03-21T10:50:33;94662.34;;;17.18;41.78
33953;BME280;20231;42.710;23.280;2023-03-21T10:53:37;94662.88;;;17.32;41.61
33953;BME280;20231;42.710;23.280;2023-03-21T10:56:56;94669.72;;;17.42;40.49
33953;BME280;20231;42.710;23.280;2023-03-21T10:59:38;94660.19;;;17.53;40.02
33953;BME280;20231;42.710;23.280;2023-03-21T11:02:24;94655.25;;;17.43;40.36
33953;BME280;20231;42.710;23.280;2023-03-21T11:04:52;94651.47;;;17.44;40.46
33953;BME280;20231;42.710;23.280;2023-03-21T11:07:18;94637.03;;;17.45;39.78
33953;BME280;20231;42.710;23.280;2023-03-21T11:09:53;94643.22;;;17.57;39.95
33953;BME280;20231;42.710;23.280;2023-03-21T11:12:33;94631.97;;;17.64;40.07
33953;BME280;20231;42.710;23.280;2023-03-21T11:17:57;94624.47;;;17.78;38.18
33953;BME280;20231;42.710;23.280;2023-03-21T11:20:23;94615.78;;;17.81;39.44
33953;BME280;20231;42.710;23.280;2023-03-21T11:22:48;94626.28;;;17.86;39.47
33953;BME280;20231;42.710;23.280;2023-03-21T11:25:24;94637.09;;;18.13;50.29
33953;BME280;20231;42.710;23.280;2023-03-21T11:27:53;94618.94;;;18.06;41.08
33953;BME280;20231;42.710;23.280;2023-03-21T11:30:26;94604.94;;;17.97;39.44
33953;BME280;20231;42.710;23.280;2023-03-21T11:32:57;94610.41;;;18.13;38.66
33953;BME280;20231;42.710;23.280;2023-03-21T11:35:37;94602.41;;;18.13;39.19
33953;BME280;20231;42.710;23.280;2023-03-21T11:38:04;94597.47;;;18.15;38.49
33953;BME280;20231;42.710;23.280;2023-03-21T11:40:35;94599.84;;;18.16;38.30
33953;BME280;20231;42.710;23.280;2023-03-21T11:43:02;94583.69;;;18.13;37.92
33953;BME280;20231;42.710;23.280;2023-03-21T11:45:33;94581.69;;;17.98;37.53
33953;BME280;20231;42.710;23.280;2023-03-21T11:48:04;94564.88;;;17.86;37.99
33953;BME280;20231;42.710;23.280;2023-03-21T11:50:39;94587.69;;;17.95;38.60
33953;BME280;20231;42.710;23.280;2023-03-21T11:53:40;94586.38;;;18.01;38.12
33953;BME280;20231;42.710;23.280;2023-03-21T11:58:45;94572.00;;;18.17;37.98
33953;BME280;20231;42.710;23.280;2023-03-21T12:01:33;94584.16;;;18.39;44.67
33953;BME280;20231;42.710;23.280;2023-03-21T12:20:32;94560.31;;;18.10;37.51
33953;BME280;20231;42.710;23.280;2023-03-21T12:25:53;94552.88;;;18.03;38.62
33953;BME280;20231;42.710;23.280;2023-03-21T12:37:16;94536.19;;;18.06;37.75
33953;BME280;20231;42.710;23.280;2023-03-21T12:39:39;94544.75;;;18.12;37.55
33953;BME280;20231;42.710;23.280;2023-03-21T12:45:15;94533.84;;;18.17;36.25
33953;BME280;20231;42.710;23.280;2023-03-21T12:47:46;94529.50;;;18.24;36.50
33953;BME280;20231;42.710;23.280;2023-03-21T12:50:25;94532.97;;;18.25;36.37
33953;BME280;20231;42.710;23.280;2023-03-21T12:55:48;94514.19;;;18.21;36.35
33953;BME280;20231;42.710;23.280;2023-03-21T12:58:21;94493.81;;;18.05;36.26
33953;BME280;20231;42.710;23.280;2023-03-21T13:00:52;94496.69;;;18.12;35.96
33953;BME280;20231;42.710;23.280;2023-03-21T13:06:24;94503.25;;;18.14;35.67
33953;BME280;20231;42.710;23.280;2023-03-21T13:09:13;94507.59;;;18.19;35.78
33953;BME280;20231;42.710;23.280;2023-03-21T13:11:42;94478.31;;;17.98;35.48
33953;BME280;20231;42.710;23.280;2023-03-21T13:14:20;94504.91;;;18.19;36.16
33953;BME280;20231;42.710;23.280;2023-03-21T13:16:55;94486.13;;;18.15;36.15
33953;BME280;20231;42.710;23.280;2023-03-21T13:19:43;94493.16;;;18.20;35.73
33953;BME280;20231;42.710;23.280;2023-03-21T13:22:27;94495.69;;;18.16;36.03
33953;BME280;20231;42.710;23.280;2023-03-21T13:24:59;94488.22;;;18.10;35.94
33953;BME280;20231;42.710;23.280;2023-03-21T13:30:26;94498.78;;;18.06;36.05
33953;BME280;20231;42.710;23.280;2023-03-21T13:33:07;94472.00;;;17.91;36.52
33953;BME280;20231;42.710;23.280;2023-03-21T13:35:37;94486.91;;;18.04;36.27
33953;BME280;20231;42.710;23.280;2023-03-21T13:38:18;94488.56;;;18.08;36.45
33953;BME280;20231;42.710;23.280;2023-03-21T13:40:58;94481.09;;;18.02;36.46
33953;BME280;20231;42.710;23.280;2023-03-21T13:43:49;94486.91;;;18.04;36.79
33953;BME280;20231;42.710;23.280;2023-03-21T13:54:01;94457.28;;;18.09;37.04
33953;BME280;20231;42.710;23.280;2023-03-21T13:56:28;94475.31;;;18.12;37.07
33953;BME280;20231;42.710;23.280;2023-03-21T13:59:02;94473.00;;;18.10;37.59
33953;BME280;20231;42.710;23.280;2023-03-21T14:01:40;94470.75;;;18.12;37.25
33953;BME280;20231;42.710;23.280;2023-03-21T14:04:12;94470.66;;;18.09;37.47
33953;BME280;20231;42.710;23.280;2023-03-21T14:06:46;94466.75;;;18.06;37.62
33953;BME280;20231;42.710;23.280;2023-03-21T14:09:39;94459.31;;;18.00;37.65
33953;BME280;20231;42.710;23.280;2023-03-21T14:12:07;94443.19;;;17.96;37.64
33953;BME280;20231;42.710;23.280;2023-03-21T14:14:42;94462.31;;;17.98;38.17
33953;BME280;20231;42.710;23.280;2023-03-21T14:17:27;94452.44;;;17.99;37.33
33953;BME280;20231;42.710;23.280;2023-03-21T14:20:00;94461.66;;;17.89;38.05
33953;BME280;20231;42.710;23.280;2023-03-21T14:22:26;94451.53;;;17.83;38.33
33953;BME280;20231;42.710;23.280;2023-03-21T14:24:57;94457.19;;;17.93;38.45
33953;BME280;20231;42.710;23.280;2023-03-21T14:27:26;94452.09;;;17.88;38.37
33953;BME280;20231;42.710;23.280;2023-03-21T14:29:52;94455.63;;;17.92;38.10
33953;BME280;20231;42.710;23.280;2023-03-21T14:32:21;94460.66;;;17.94;38.46
33953;BME280;20231;42.710;23.280;2023-03-21T14:34:48;94457.31;;;17.85;38.86
33953;BME280;20231;42.710;23.280;2023-03-21T14:37:46;94465.56;;;17.92;38.88
33953;BME280;20231;42.710;23.280;2023-03-21T14:40:26;94461.31;;;17.91;38.97